Time;durP1;ratioP1;P1;durP2;ratioP2;P2;SDS_P1;SDS_P2;PMS_P1;PMS_P2;Temp;Humidity;BMP_temperature;BMP_pressure;BME280_temperature;BME280_humidity;BME280_pressure;Samples;Min_cycle;Max_cycle;Signal;HPM_P1;HPM_P2
2022/03/02 00:01:38;;;;;;;31.90;17.67;;;5.10;99.90;;;;;;5051225;28;20045;-78
2022/03/02 00:04:04;;;;;;;31.33;18.05;;;6.10;99.90;;;;;;5050661;28;20059;-78
2022/03/02 00:06:30;;;;;;;36.45;18.33;;;5.10;99.90;;;;;;5067549;28;20082;-78
2022/03/02 00:08:56;;;;;;;28.10;16.90;;;5.20;99.90;;;;;;5066456;28;20044;-78
2022/03/02 00:11:22;;;;;;;28.80;17.05;;;6.30;99.90;;;;;;5035297;28;20041;-78
2022/03/02 00:13:48;;;;;;;36.00;18.38;;;5.10;99.90;;;;;;5067114;28;20479;-79
2022/03/02 00:16:14;;;;;;;30.73;17.45;;;5.10;99.90;;;;;;5067614;28;20554;-79
2022/03/02 00:18:40;;;;;;;30.77;17.60;;;5.10;99.90;;;;;;5067770;28;20134;-79
2022/03/02 00:21:06;;;;;;;35.15;19.17;;;5.10;99.90;;;;;;5067213;28;20052;-79
2022/03/02 00:23:32;;;;;;;32.28;18.00;;;5.40;99.90;;;;;;5051288;28;20330;-79
2022/03/02 00:25:58;;;;;;;32.08;16.90;;;5.00;99.90;;;;;;5066666;28;20367;-79
2022/03/02 00:28:24;;;;;;;39.42;18.88;;;5.00;99.90;;;;;;5051079;28;20044;-79
2022/03/02 00:30:50;;;;;;;37.60;18.23;;;5.00;99.90;;;;;;5049335;28;20055;-79
2022/03/02 00:33:16;;;;;;;32.92;17.75;;;5.00;99.90;;;;;;5067119;28;20055;-79
2022/03/02 00:35:42;;;;;;;37.97;18.65;;;5.40;99.90;;;;;;5068211;28;20052;-79
2022/03/02 00:38:10;;;;;;;31.73;17.52;;;5.00;99.90;;;;;;5068300;28;20120;-79
2022/03/02 00:40:39;;;;;;;32.10;19.00;;;5.00;99.90;;;;;;5069185;28;20114;-79
2022/03/02 00:43:06;;;;;;;35.03;19.33;;;5.00;99.90;;;;;;5067628;28;20477;-79
2022/03/02 00:45:32;;;;;;;32.00;17.98;;;5.00;99.90;;;;;;5069143;28;20377;-79
2022/03/02 00:47:59;;;;;;;34.63;18.67;;;5.00;99.90;;;;;;5067897;28;20571;-79
2022/03/02 00:50:26;;;;;;;33.50;19.70;;;5.00;99.90;;;;;;5068612;28;20404;-79
2022/03/02 00:52:51;;;;;;;35.42;17.75;;;5.00;99.90;;;;;;5068092;28;20526;-79
2022/03/02 00:55:18;;;;;;;34.17;18.75;;;5.00;99.90;;;;;;5066906;28;20048;-79
2022/03/02 00:57:44;;;;;;;34.05;18.88;;;5.00;99.90;;;;;;5068558;28;20125;-80
2022/03/02 01:00:11;;;;;;;33.65;18.50;;;5.40;99.90;;;;;;5066527;28;20489;-79
2022/03/02 01:02:37;;;;;;;39.72;19.55;;;5.10;99.90;;;;;;5068525;28;20105;-79
2022/03/02 01:05:05;;;;;;;31.88;19.17;;;4.90;99.90;;;;;;5066086;28;20076;-80
2022/03/02 01:07:31;;;;;;;37.22;18.75;;;4.90;99.90;;;;;;5066874;28;20052;-79
2022/03/02 01:09:58;;;;;;;34.08;19.52;;;5.00;99.90;;;;;;5068465;28;20048;-80
2022/03/02 01:12:24;;;;;;;37.58;19.48;;;5.00;99.90;;;;;;5071444;28;20078;-80
2022/03/02 01:14:50;;;;;;;37.08;19.17;;;5.00;99.90;;;;;;5067217;28;20045;-79
2022/03/02 01:17:17;;;;;;;37.28;20.48;;;4.90;99.90;;;;;;5067371;28;20075;-79
2022/03/02 01:19:42;;;;;;;35.47;20.15;;;4.90;99.90;;;;;;5066587;28;20554;-79
2022/03/02 01:22:08;;;;;;;35.60;18.77;;;4.90;99.90;;;;;;5066740;28;20120;-79
2022/03/02 01:24:34;;;;;;;34.30;18.83;;;4.90;99.90;;;;;;5067910;28;20044;-79
2022/03/02 01:27:01;;;;;;;36.85;20.70;;;5.30;99.90;;;;;;5067854;28;20109;-79
2022/03/02 01:29:30;;;;;;;36.92;18.92;;;4.90;99.90;;;;;;5065982;28;20037;-79
2022/03/02 01:31:56;;;;;;;41.50;19.95;;;4.90;99.90;;;;;;5067666;28;20044;-79
2022/03/02 01:34:22;;;;;;;34.58;20.10;;;5.90;99.90;;;;;;5067118;28;20048;-79
2022/03/02 01:36:47;;;;;;;39.92;20.20;;;4.80;99.90;;;;;;5067444;28;20151;-79
2022/03/02 01:39:13;;;;;;;31.95;19.77;;;4.80;99.90;;;;;;5065496;28;20101;-79
2022/03/02 01:41:39;;;;;;;34.70;18.45;;;4.80;99.90;;;;;;5032868;28;20042;-79
2022/03/02 01:44:05;;;;;;;36.10;19.35;;;4.80;99.90;;;;;;5065634;28;20045;-79
2022/03/02 01:46:31;;;;;;;37.45;20.33;;;4.80;99.90;;;;;;5064957;28;20044;-79
2022/03/02 01:48:57;;;;;;;36.85;19.40;;;4.70;99.90;;;;;;5049180;28;20506;-79
2022/03/02 01:51:23;;;;;;;38.10;19.58;;;4.70;99.90;;;;;;5064823;28;20051;-79
2022/03/02 01:53:50;;;;;;;38.67;20.05;;;4.70;99.90;;;;;;5049349;28;20411;-79
2022/03/02 01:56:16;;;;;;;34.30;19.83;;;4.70;99.90;;;;;;5064982;28;20048;-79
2022/03/02 01:58:44;;;;;;;37.30;19.42;;;4.70;99.90;;;;;;5065953;28;20113;-79
2022/03/02 02:01:10;;;;;;;38.78;19.98;;;4.60;99.90;;;;;;5048615;28;20048;-77
2022/03/02 02:03:36;;;;;;;39.63;20.60;;;6.00;99.90;;;;;;5048487;28;20044;-78
2022/03/02 02:06:02;;;;;;;38.63;20.98;;;4.60;99.90;;;;;;5066063;28;20650;-78
2022/03/02 02:08:29;;;;;;;35.83;19.05;;;4.50;99.90;;;;;;5066356;28;20056;-79
2022/03/02 02:10:57;;;;;;;36.78;20.73;;;4.50;99.90;;;;;;5048787;28;20093;-79
2022/03/02 02:13:25;;;;;;;39.30;20.83;;;4.50;99.90;;;;;;5031803;28;20044;-79
2022/03/02 02:15:53;;;;;;;38.83;20.05;;;4.40;99.90;;;;;;5065689;28;20091;-79
2022/03/02 02:18:20;;;;;;;39.92;21.13;;;4.40;99.90;;;;;;5048491;28;20199;-79
2022/03/02 02:20:45;;;;;;;34.63;20.27;;;4.30;99.90;;;;;;5065073;28;20068;-79
2022/03/02 02:23:12;;;;;;;40.35;21.38;;;4.20;99.90;;;;;;5065805;28;20459;-79
2022/03/02 02:25:38;;;;;;;40.28;21.92;;;4.20;99.90;;;;;;5064759;28;20053;-79
2022/03/02 02:28:04;;;;;;;37.25;21.33;;;4.10;99.90;;;;;;5048705;28;20354;-79
2022/03/02 02:30:30;;;;;;;39.25;22.08;;;4.10;99.90;;;;;;5064046;28;20118;-79
2022/03/02 02:32:56;;;;;;;40.95;21.50;;;4.00;99.90;;;;;;5048821;28;20055;-79
2022/03/02 02:35:22;;;;;;;44.25;22.65;;;4.00;99.90;;;;;;5048091;28;20048;-79
2022/03/02 02:37:48;;;;;;;40.50;22.00;;;3.90;99.90;;;;;;5047068;28;20538;-79
2022/03/02 02:40:17;;;;;;;46.35;21.13;;;3.90;99.90;;;;;;5047822;28;20040;-79
2022/03/02 02:42:44;;;;;;;47.35;23.30;;;3.80;99.90;;;;;;5063408;28;20048;-79
2022/03/02 02:45:14;;;;;;;42.78;22.02;;;3.70;99.90;;;;;;5064128;28;20059;-79
2022/03/02 02:47:41;;;;;;;48.58;22.95;;;3.70;99.90;;;;;;5046676;28;20045;-79
2022/03/02 02:50:22;;;;;;;46.15;21.75;;;4.70;99.90;;;;;;5063880;28;20131;-79
2022/03/02 02:52:50;;;;;;;49.78;23.23;;;3.60;99.90;;;;;;5047953;28;20483;-79
2022/03/02 02:55:16;;;;;;;46.63;21.92;;;3.50;99.90;;;;;;5046700;28;20119;-78
2022/03/02 02:57:43;;;;;;;47.85;25.15;;;3.50;99.90;;;;;;5063984;28;20040;-79
2022/03/02 03:00:12;;;;;;;46.22;23.08;;;3.60;99.90;;;;;;5045243;28;20044;-79
2022/03/02 03:02:39;;;;;;;50.72;24.38;;;3.40;99.90;;;;;;5064185;28;20534;-79
2022/03/02 03:05:08;;;;;;;47.92;24.20;;;3.40;99.90;;;;;;5046795;28;20040;-79
2022/03/02 03:07:34;;;;;;;47.47;23.27;;;3.30;99.90;;;;;;5047635;28;20052;-79
2022/03/02 03:10:00;;;;;;;46.78;24.98;;;3.30;99.90;;;;;;5063890;28;20048;-79
2022/03/02 03:12:25;;;;;;;45.17;24.77;;;3.30;99.90;;;;;;5013468;28;20044;-79
2022/03/02 03:14:51;;;;;;;49.47;25.83;;;3.20;99.90;;;;;;5065095;28;20431;-79
2022/03/02 03:17:17;;;;;;;51.33;24.58;;;3.20;99.90;;;;;;5064738;28;20048;-79
2022/03/02 03:19:42;;;;;;;50.85;25.42;;;3.10;99.90;;;;;;5065645;28;20373;-79
2022/03/02 03:22:08;;;;;;;49.40;25.33;;;3.10;99.90;;;;;;5064490;28;20037;-79
2022/03/02 03:24:34;;;;;;;45.60;23.67;;;3.10;99.90;;;;;;5065120;28;20086;-79
2022/03/02 03:27:01;;;;;;;52.25;24.92;;;3.10;99.90;;;;;;5063671;28;20048;-79
2022/03/02 03:29:27;;;;;;;47.90;23.65;;;3.00;99.90;;;;;;5064179;28;20119;-79
2022/03/02 03:31:52;;;;;;;52.45;25.13;;;3.00;99.90;;;;;;5064992;28;20549;-79
2022/03/02 03:34:18;;;;;;;57.22;25.17;;;3.00;99.90;;;;;;5064005;28;20041;-79
2022/03/02 03:36:44;;;;;;;52.30;25.63;;;2.90;99.90;;;;;;5027190;28;1113190;-79
2022/03/02 03:39:10;;;;;;;48.30;23.50;;;2.90;99.90;;;;;;5030822;28;20084;-78
2022/03/02 03:41:35;;;;;;;50.78;25.13;;;2.90;99.90;;;;;;5047963;28;20041;-78
2022/03/02 03:44:01;;;;;;;47.50;24.38;;;2.80;99.90;;;;;;5015372;28;20049;-78
2022/03/02 03:46:28;;;;;;;54.42;24.67;;;2.80;99.90;;;;;;5063703;28;20086;-78
2022/03/02 03:48:53;;;;;;;52.15;25.17;;;2.80;99.90;;;;;;5047679;28;20481;-78
2022/03/02 03:51:19;;;;;;;51.97;24.40;;;2.70;99.90;;;;;;5063472;28;20135;-78
2022/03/02 03:53:45;;;;;;;48.08;24.10;;;3.80;99.90;;;;;;5031386;28;20101;-78
2022/03/02 03:56:11;;;;;;;46.95;24.85;;;3.40;99.90;;;;;;5047307;28;20102;-77
2022/03/02 03:58:37;;;;;;;49.65;25.30;;;4.10;99.90;;;;;;5064700;28;20076;-78
2022/03/02 04:01:03;;;;;;;46.50;24.67;;;2.50;99.90;;;;;;5064746;28;20052;-78
2022/03/02 04:03:29;;;;;;;49.00;24.65;;;2.50;99.90;;;;;;5063448;28;20549;-78
2022/03/02 04:05:55;;;;;;;51.22;25.10;;;2.50;99.90;;;;;;5064110;28;20090;-79
2022/03/02 04:08:22;;;;;;;53.70;24.45;;;3.60;99.90;;;;;;5063302;28;20049;-78
2022/03/02 04:10:49;;;;;;;48.92;25.95;;;2.40;99.90;;;;;;5049137;28;20053;-78
2022/03/02 04:13:15;;;;;;;45.85;24.40;;;2.30;99.90;;;;;;5034288;28;20036;-78
2022/03/02 04:15:41;;;;;;;49.90;25.60;;;2.30;99.90;;;;;;5051678;28;20059;-78
2022/03/02 04:18:07;;;;;;;52.17;25.73;;;2.30;99.90;;;;;;5067490;28;20385;-79
2022/03/02 04:20:34;;;;;;;50.30;24.63;;;3.00;99.90;;;;;;5050360;28;20127;-78
2022/03/02 04:23:00;;;;;;;47.33;24.98;;;2.20;99.90;;;;;;5050628;28;20084;-78
2022/03/02 04:25:26;;;;;;;44.85;25.10;;;2.20;99.90;;;;;;5050212;28;20084;-78
2022/03/02 04:27:51;;;;;;;54.03;23.60;;;2.20;99.90;;;;;;5067339;28;20577;-79
2022/03/02 04:30:18;;;;;;;53.90;26.42;;;2.40;99.90;;;;;;5066450;28;20071;-78
2022/03/02 04:32:43;;;;;;;51.35;25.08;;;2.10;99.90;;;;;;5067636;28;20460;-78
2022/03/02 04:35:11;;;;;;;53.53;25.08;;;2.10;99.90;;;;;;5050975;28;20059;-78
2022/03/02 04:37:38;;;;;;;45.17;23.95;;;2.10;99.90;;;;;;5066493;28;20048;-78
2022/03/02 04:40:06;;;;;;;48.65;24.25;;;2.10;99.90;;;;;;5050678;28;20044;-77
2022/03/02 04:42:32;;;;;;;45.83;24.13;;;2.10;99.90;;;;;;5066270;28;20170;-78
2022/03/02 04:44:58;;;;;;;49.38;23.15;;;2.00;99.90;;;;;;5017745;28;20077;-78
2022/03/02 04:47:24;;;;;;;50.67;25.60;;;2.00;99.90;;;;;;5066762;28;20047;-78
2022/03/02 04:49:49;;;;;;;44.40;23.08;;;2.00;99.90;;;;;;5066963;28;20064;-78
2022/03/02 04:52:15;;;;;;;48.40;25.80;;;1.90;99.90;;;;;;5067131;28;20139;-78
2022/03/02 04:57:25;;;;;;;46.15;23.48;;;1.90;99.90;;;;;;5052511;28;20045;-78
2022/03/02 04:59:51;;;;;;;54.72;24.75;;;2.80;99.90;;;;;;5033267;28;20141;-78
2022/03/02 05:02:17;;;;;;;54.45;24.98;;;1.90;99.90;;;;;;5050451;28;20179;-78
2022/03/02 05:04:43;;;;;;;49.60;24.33;;;1.90;99.90;;;;;;5050087;28;20476;-78
2022/03/02 05:07:09;;;;;;;44.17;23.02;;;1.90;99.90;;;;;;5066476;28;20507;-78
2022/03/02 05:09:35;;;;;;;44.13;23.40;;;1.90;99.90;;;;;;5017715;28;20353;-78
2022/03/02 05:12:02;;;;;;;50.28;24.52;;;1.90;99.90;;;;;;5016952;28;20040;-78
2022/03/02 05:14:29;;;;;;;45.40;23.17;;;1.80;99.90;;;;;;5017196;28;20044;-78
2022/03/02 05:16:55;;;;;;;47.75;23.63;;;2.40;99.90;;;;;;5049419;28;20037;-79
2022/03/02 05:19:21;;;;;;;43.85;23.67;;;1.80;99.90;;;;;;5050159;28;20079;-79
2022/03/02 05:21:47;;;;;;;48.17;23.48;;;1.80;99.90;;;;;;5064995;28;20091;-78
2022/03/02 05:24:14;;;;;;;45.72;24.88;;;1.80;99.90;;;;;;5066320;28;20052;-78
2022/03/02 05:26:40;;;;;;;45.55;22.38;;;1.70;99.90;;;;;;5066624;28;20601;-78
2022/03/02 05:29:07;;;;;;;47.15;24.33;;;1.70;99.90;;;;;;5065419;28;20045;-78
2022/03/02 05:31:33;;;;;;;45.70;24.45;;;1.70;99.90;;;;;;5065844;28;20051;-78
2022/03/02 05:33:59;;;;;;;40.38;21.17;;;1.60;99.90;;;;;;5065259;28;20047;-78
2022/03/02 05:36:26;;;;;;;45.08;22.08;;;1.60;99.90;;;;;;5049443;28;20048;-78
2022/03/02 05:38:52;;;;;;;44.20;23.77;;;1.50;99.90;;;;;;5065788;28;20452;-78
2022/03/02 05:41:18;;;;;;;46.42;22.40;;;1.50;99.90;;;;;;5066211;28;20048;-78
2022/03/02 05:43:44;;;;;;;43.80;23.35;;;1.50;99.90;;;;;;5049589;28;20471;-78
2022/03/02 05:46:09;;;;;;;47.47;23.27;;;1.40;99.90;;;;;;5048934;28;20689;-78
2022/03/02 05:48:36;;;;;;;38.08;22.15;;;1.40;99.90;;;;;;5065706;28;20656;-78
2022/03/02 05:51:02;;;;;;;49.78;23.70;;;1.40;99.90;;;;;;5065368;28;20652;-78
2022/03/02 05:53:28;;;;;;;45.83;23.15;;;1.40;99.90;;;;;;5032859;28;20040;-78
2022/03/02 05:55:53;;;;;;;46.45;23.77;;;1.30;99.90;;;;;;5065036;28;20456;-77
2022/03/02 05:58:19;;;;;;;40.55;21.20;;;1.30;99.90;;;;;;5066260;28;20082;-78
2022/03/02 06:00:45;;;;;;;52.30;25.08;;;1.30;99.90;;;;;;5048992;28;20044;-77
2022/03/02 06:03:10;;;;;;;47.28;23.42;;;1.30;99.90;;;;;;5065211;28;20120;-78
2022/03/02 06:05:36;;;;;;;40.92;21.17;;;1.20;99.90;;;;;;5048940;28;20492;-78
2022/03/02 06:08:02;;;;;;;47.90;24.90;;;1.20;99.90;;;;;;5047840;28;20547;-80
2022/03/02 06:10:28;;;;;;;42.25;23.05;;;1.20;99.90;;;;;;5065137;28;20055;-79
2022/03/02 06:12:54;;;;;;;46.95;23.58;;;1.20;99.90;;;;;;5048031;28;20104;-79
2022/03/02 06:15:20;;;;;;;44.97;24.08;;;1.20;99.90;;;;;;5065244;28;20178;-80
2022/03/02 06:17:46;;;;;;;47.28;24.23;;;1.20;99.90;;;;;;5048735;28;20051;-79
2022/03/02 06:20:12;;;;;;;39.83;22.23;;;1.30;99.90;;;;;;5064430;28;20056;-79
2022/03/02 06:22:38;;;;;;;50.20;23.70;;;1.30;99.90;;;;;;5065429;28;20123;-79
2022/03/02 06:25:07;;;;;;;56.33;24.17;;;1.30;99.90;;;;;;5064554;28;20456;-78
2022/03/02 06:27:34;;;;;;;47.33;23.17;;;1.30;99.90;;;;;;5048385;28;20044;-79
2022/03/02 06:29:59;;;;;;;49.00;23.80;;;1.30;99.90;;;;;;5048110;28;20044;-78
2022/03/02 06:32:26;;;;;;;43.28;23.55;;;1.30;99.90;;;;;;5048307;28;20091;-79
2022/03/02 06:34:51;;;;;;;44.20;24.13;;;1.30;99.90;;;;;;5064967;28;20381;-79
2022/03/02 06:37:17;;;;;;;41.50;23.55;;;1.40;99.90;;;;;;5064301;28;20063;-79
2022/03/02 06:39:43;;;;;;;47.20;23.75;;;1.40;99.90;;;;;;5031659;28;20048;-79
2022/03/02 06:42:23;;;;;;;49.85;23.85;;;1.40;99.90;;;;;;5031209;28;20037;-79
2022/03/02 06:45:05;;;;;;;48.22;24.38;;;1.30;99.90;;;;;;5064826;28;20088;-80
2022/03/02 06:47:41;;;;;;;46.22;22.55;;;1.40;99.90;;;;;;5065261;28;20119;-79
2022/03/02 06:50:12;;;;;;;48.05;24.65;;;1.40;99.90;;;;;;5064671;28;20377;-79
2022/03/02 06:52:45;;;;;;;51.70;24.23;;;1.40;99.90;;;;;;5065166;28;20525;-80
2022/03/02 06:55:18;;;;;;;46.00;24.75;;;1.40;99.90;;;;;;5063911;28;20032;-80
2022/03/02 06:57:49;;;;;;;46.72;24.45;;;1.50;99.90;;;;;;5048154;28;20086;-80
2022/03/02 07:00:16;;;;;;;46.83;23.25;;;1.50;99.90;;;;;;5047751;28;20131;-78
2022/03/02 07:02:49;;;;;;;44.83;23.60;;;1.50;99.90;;;;;;5047507;28;20044;-78
2022/03/02 07:05:16;;;;;;;44.17;22.30;;;1.50;99.90;;;;;;5048494;28;20087;-79
2022/03/02 07:07:42;;;;;;;44.55;23.30;;;1.60;99.90;;;;;;5046836;28;20039;-80
2022/03/02 07:10:10;;;;;;;45.72;21.80;;;1.60;99.90;;;;;;5064532;28;20044;-79
2022/03/02 07:12:37;;;;;;;42.58;22.80;;;1.60;99.90;;;;;;5064175;28;20114;-79
2022/03/02 07:15:04;;;;;;;42.53;22.45;;;1.60;99.90;;;;;;5064918;28;20136;-79
2022/03/02 07:17:32;;;;;;;45.88;23.92;;;1.70;99.90;;;;;;5064857;28;20045;-80
2022/03/02 07:20:04;;;;;;;46.13;23.83;;;1.90;99.90;;;;;;5047813;28;20045;-79
2022/03/02 07:22:32;;;;;;;31.73;16.93;;;1.70;99.90;;;;;;5048586;28;20107;-79
2022/03/02 07:25:06;;;;;;;49.72;24.63;;;1.80;99.90;;;;;;5047414;28;20131;-80
2022/03/02 07:27:37;;;;;;;41.15;23.42;;;2.10;99.90;;;;;;5064758;28;20060;-79
2022/03/02 07:30:03;;;;;;;45.92;24.73;;;1.90;99.90;;;;;;5064013;28;20111;-79
2022/03/02 07:32:32;;;;;;;48.83;24.35;;;2.00;99.90;;;;;;5031065;28;20052;-79
2022/03/02 07:35:01;;;;;;;44.60;24.27;;;2.00;99.90;;;;;;5047585;28;20040;-80
2022/03/02 07:37:28;;;;;;;48.42;23.88;;;2.10;99.90;;;;;;5047269;28;20041;-79
2022/03/02 07:39:55;;;;;;;47.20;22.73;;;2.20;99.90;;;;;;5031330;28;20514;-79
2022/03/02 07:42:21;;;;;;;50.00;24.50;;;2.30;99.90;;;;;;5047172;28;20369;-80
2022/03/02 07:44:51;;;;;;;45.45;23.67;;;2.40;99.90;;;;;;5064307;28;20080;-81
2022/03/02 07:47:18;;;;;;;48.75;21.80;;;2.50;99.90;;;;;;5034967;28;20063;-81
2022/03/02 07:49:45;;;;;;;43.92;22.08;;;2.50;99.90;;;;;;5051308;28;20048;-81
2022/03/02 07:52:12;;;;;;;46.53;22.83;;;2.60;99.90;;;;;;5068484;28;20120;-81
2022/03/02 07:54:40;;;;;;;44.05;23.30;;;2.70;99.90;;;;;;5067174;28;20084;-80
2022/03/02 07:57:11;;;;;;;45.20;23.73;;;2.80;99.90;;;;;;5051068;28;20049;-80
2022/03/02 07:59:39;;;;;;;46.47;24.45;;;2.90;99.90;;;;;;5066991;28;20045;-81
2022/03/02 08:02:08;;;;;;;40.92;22.27;;;3.00;99.90;;;;;;5068076;28;20388;-82
2022/03/02 08:04:39;;;;;;;48.42;23.80;;;3.00;99.90;;;;;;5051154;28;20561;-82
2022/03/02 08:07:05;;;;;;;45.25;23.85;;;3.10;99.90;;;;;;5050767;28;20044;-82
2022/03/02 08:09:31;;;;;;;40.05;21.77;;;4.00;99.90;;;;;;5067787;28;20083;-81
2022/03/02 08:11:58;;;;;;;42.05;23.45;;;3.30;99.90;;;;;;5034287;28;20041;-82
2022/03/02 08:14:25;;;;;;;40.38;22.60;;;3.40;99.90;;;;;;5067406;28;20055;-82
2022/03/02 08:16:55;;;;;;;47.08;22.77;;;3.50;99.90;;;;;;5066963;28;20075;-82
2022/03/02 08:19:21;;;;;;;46.67;22.58;;;3.60;99.90;;;;;;5067363;28;20500;-82
2022/03/02 08:21:56;;;;;;;45.70;22.48;;;3.70;99.90;;;;;;5067887;28;20045;-82
2022/03/02 08:24:26;;;;;;;45.78;24.10;;;3.90;99.90;;;;;;5067482;28;20110;-81
2022/03/02 08:26:56;;;;;;;43.38;22.95;;;4.50;99.90;;;;;;5067461;28;20416;-81
2022/03/02 08:29:25;;;;;;;37.85;21.50;;;4.40;99.90;;;;;;5066529;28;20041;-82
2022/03/02 08:31:53;;;;;;;38.50;20.77;;;4.60;99.90;;;;;;5067096;28;20044;-82
2022/03/02 08:34:19;;;;;;;36.95;20.88;;;4.80;99.90;;;;;;5050507;28;20500;-81
2022/03/02 08:36:46;;;;;;;38.53;21.55;;;4.90;99.90;;;;;;5050368;28;20504;-82
2022/03/02 08:39:13;;;;;;;38.15;22.08;;;6.00;99.90;;;;;;5050493;28;20043;-82
2022/03/02 08:41:39;;;;;;;36.97;20.98;;;5.10;99.90;;;;;;5050260;28;20063;-82
2022/03/02 08:44:07;;;;;;;40.65;21.80;;;4.90;99.90;;;;;;5067256;28;20052;-82
2022/03/02 08:46:33;;;;;;;38.10;21.45;;;5.20;99.90;;;;;;5066250;28;20032;-82
2022/03/02 08:48:59;;;;;;;41.72;21.95;;;6.60;99.90;;;;;;5067201;28;20049;-81
2022/03/02 08:51:26;;;;;;;40.05;22.05;;;5.40;99.90;;;;;;5066675;28;20127;-81
2022/03/02 08:53:59;;;;;;;32.17;20.10;;;6.40;99.90;;;;;;5066412;28;20492;-81
2022/03/02 08:56:25;;;;;;;37.45;21.42;;;5.70;99.90;;;;;;5067242;28;20424;-81
2022/03/02 08:58:54;;;;;;;40.63;20.33;;;7.00;99.90;;;;;;5066168;28;20083;-82
2022/03/02 09:01:20;;;;;;;33.47;21.05;;;5.80;99.90;;;;;;5049815;28;20041;-81
2022/03/02 09:03:51;;;;;;;34.13;19.92;;;5.90;99.90;;;;;;5065860;28;20044;-81
2022/03/02 09:06:20;;;;;;;37.13;20.35;;;6.00;99.90;;;;;;5050422;28;20044;-81
2022/03/02 09:08:45;;;;;;;36.63;20.48;;;6.00;99.90;;;;;;5050053;28;20182;-81
2022/03/02 09:11:11;;;;;;;36.25;20.50;;;6.70;99.90;;;;;;5016124;28;20178;-81
2022/03/02 09:13:38;;;;;;;40.25;20.73;;;6.10;99.90;;;;;;5049704;28;20487;-80
2022/03/02 09:16:06;;;;;;;37.15;20.70;;;6.90;99.90;;;;;;5065521;28;20055;-81
2022/03/02 09:18:33;;;;;;;38.10;20.27;;;6.30;99.90;;;;;;5066401;28;20095;-81
2022/03/02 09:21:04;;;;;;;34.08;19.95;;;7.40;99.90;;;;;;5032480;28;20040;-81
2022/03/02 09:23:34;;;;;;;34.90;19.63;;;6.50;99.90;;;;;;5066493;28;20399;-81
2022/03/02 09:26:05;;;;;;;37.38;19.70;;;6.60;99.90;;;;;;5049807;28;20048;-81
2022/03/02 09:28:36;;;;;;;32.75;19.00;;;6.80;99.90;;;;;;5065688;28;20472;-81
2022/03/02 09:31:04;;;;;;;33.35;19.35;;;6.90;99.90;;;;;;5065888;28;20119;-81
2022/03/02 09:33:31;;;;;;;33.58;18.10;;;7.00;99.90;;;;;;5065156;28;20063;-81
2022/03/02 09:36:00;;;;;;;37.22;19.80;;;7.00;99.90;;;;;;5049339;28;20106;-81
2022/03/02 09:38:27;;;;;;;35.53;19.00;;;7.10;99.90;;;;;;5066002;28;20111;-81
2022/03/02 09:40:55;;;;;;;31.85;18.85;;;7.20;99.90;;;;;;5032738;28;20087;-80
2022/03/02 09:43:25;;;;;;;34.38;19.02;;;7.20;99.90;;;;;;5065998;28;20040;-81
2022/03/02 09:45:57;;;;;;;32.35;19.23;;;7.30;99.90;;;;;;5065013;28;20046;-80
2022/03/02 09:48:32;;;;;;;32.53;18.35;;;7.30;99.90;;;;;;5065535;28;20102;-81
2022/03/02 09:51:04;;;;;;;31.33;17.33;;;7.40;99.90;;;;;;5048418;28;20140;-81
2022/03/02 09:53:32;;;;;;;33.83;18.00;;;7.50;99.90;;;;;;5065765;28;20404;-81
2022/03/02 09:56:03;;;;;;;31.17;18.52;;;7.50;99.90;;;;;;5049102;28;20041;-79
2022/03/02 09:58:29;;;;;;;28.85;16.95;;;8.50;99.90;;;;;;5048218;28;20119;-80
2022/03/02 10:00:57;;;;;;;28.80;17.20;;;8.80;99.90;;;;;;5065740;28;20384;-78
2022/03/02 10:03:27;;;;;;;33.30;18.40;;;7.90;99.90;;;;;;5048199;28;20097;-80
2022/03/02 10:05:53;;;;;;;30.85;17.30;;;8.00;99.90;;;;;;5048996;28;20043;-79
2022/03/02 10:08:23;;;;;;;36.53;19.00;;;8.00;99.90;;;;;;5048802;28;20033;-79
2022/03/02 10:10:49;;;;;;;40.30;18.02;;;8.10;99.90;;;;;;5064711;28;20553;-79
2022/03/02 10:13:17;;;;;;;31.70;18.17;;;8.10;99.90;;;;;;5066938;28;20036;-79
2022/03/02 10:15:44;;;;;;;30.65;18.42;;;8.20;99.90;;;;;;5048719;28;20096;-79
2022/03/02 10:18:12;;;;;;;32.50;17.67;;;8.30;99.90;;;;;;5064984;28;20255;-79
2022/03/02 10:20:49;;;;;;;29.98;16.88;;;8.40;99.90;;;;;;5064612;28;20048;-79
2022/03/02 10:23:30;;;;;;;34.67;18.30;;;8.60;99.90;;;;;;5064866;28;20055;-79
2022/03/02 10:26:04;;;;;;;32.58;17.65;;;8.70;99.90;;;;;;5065501;28;20044;-80
2022/03/02 10:28:54;;;;;;;25.27;16.20;;;8.70;99.90;;;;;;5065868;28;20405;-79
2022/03/02 10:31:31;;;;;;;31.15;18.15;;;8.80;99.90;;;;;;5066352;28;20214;-79
2022/03/02 10:34:23;;;;;;;31.02;17.58;;;8.90;99.90;;;;;;5065022;28;20128;-81
2022/03/02 10:37:04;;;;;;;30.08;17.55;;;9.00;99.90;;;;;;5053883;28;20512;-79
2022/03/02 10:39:52;;;;;;;26.92;16.48;;;9.00;99.90;;;;;;5064530;28;20049;-80
2022/03/02 10:42:29;;;;;;;29.05;15.60;;;9.10;99.90;;;;;;5064907;28;20032;-80
2022/03/02 10:45:09;;;;;;;28.13;15.88;;;9.20;99.90;;;;;;5064204;28;20060;-80
2022/03/02 10:48:01;;;;;;;32.05;16.45;;;9.20;99.90;;;;;;5048109;28;20110;-80
2022/03/02 10:50:35;;;;;;;29.58;15.27;;;9.20;99.90;;;;;;5064708;28;20376;-82
2022/03/02 10:53:07;;;;;;;30.70;16.10;;;9.30;99.90;;;;;;5065749;28;20045;-79
2022/03/02 10:55:35;;;;;;;30.30;15.90;;;9.30;99.90;;;;;;5064953;28;20075;-79
2022/03/02 10:58:05;;;;;;;28.90;17.02;;;9.40;99.90;;;;;;5047468;28;20048;-79
2022/03/02 11:00:32;;;;;;;24.75;14.38;;;10.30;99.90;;;;;;5066226;28;20053;-80
2022/03/02 11:02:59;;;;;;;28.20;16.67;;;9.50;99.90;;;;;;5046995;28;20050;-80
2022/03/02 11:05:29;;;;;;;27.23;16.08;;;9.60;99.90;;;;;;5048381;28;20123;-80
2022/03/02 11:07:56;;;;;;;26.45;14.88;;;9.60;99.90;;;;;;5047601;28;20037;-80
2022/03/02 11:10:30;;;;;;;25.45;15.35;;;9.60;99.90;;;;;;5064661;28;20403;-79
2022/03/02 11:12:55;;;;;;;26.75;15.15;;;9.70;99.90;;;;;;5066515;28;20311;-80
2022/03/02 11:15:22;;;;;;;25.83;14.75;;;9.70;99.90;;;;;;5047269;28;20051;-79
2022/03/02 11:17:50;;;;;;;23.33;14.60;;;9.80;99.90;;;;;;5047754;28;20045;-79
2022/03/02 11:20:16;;;;;;;25.75;14.82;;;9.90;98.20;;;;;;5064901;28;20040;-79
2022/03/02 11:22:55;;;;;;;26.52;15.05;;;9.90;99.40;;;;;;5068718;28;20040;-79
2022/03/02 11:25:40;;;;;;;27.58;13.88;;;10.00;96.60;;;;;;5068859;28;20037;-80
2022/03/02 11:28:07;;;;;;;27.77;14.48;;;10.10;97.30;;;;;;5035205;28;20060;-79
2022/03/02 11:30:34;;;;;;;24.90;15.27;;;10.20;97.70;;;;;;5068495;28;20048;-80
2022/03/02 11:33:07;;;;;;;27.17;14.88;;;10.20;97.50;;;;;;5067885;28;20044;-80
2022/03/02 11:35:36;;;;;;;;;;;10.30;93.80;;;;;;5068459;28;20045;-79
2022/03/02 11:38:05;;;;;;;25.10;13.35;;;10.40;84.90;;;;;;5068490;28;19920;-80
2022/03/02 11:40:43;;;;;;;27.80;12.85;;;10.50;95.70;;;;;;5067736;28;20109;-80
2022/03/02 11:43:22;;;;;;;21.80;12.88;;;10.60;90.00;;;;;;5068647;28;20036;-79
2022/03/02 11:45:56;;;;;;;22.13;13.38;;;10.70;87.70;;;;;;5067721;28;20087;-79
2022/03/02 11:48:28;;;;;;;23.17;12.25;;;10.70;92.50;;;;;;5068275;28;20240;-81
2022/03/02 11:51:03;;;;;;;22.13;13.30;;;10.70;92.30;;;;;;5051212;28;20040;-79
2022/03/02 11:53:37;;;;;;;25.00;13.75;;;10.70;91.00;;;;;;5051106;28;20051;-80
2022/03/02 11:56:04;;;;;;;21.90;12.55;;;10.70;88.30;;;;;;5068272;28;20478;-78
2022/03/02 11:58:52;;;;;;;20.10;13.15;;;10.90;90.80;;;;;;5050467;28;20091;-78
2022/03/02 12:01:18;;;;;;;24.08;13.50;;;10.90;78.40;;;;;;5067444;28;20112;-79
2022/03/02 12:03:58;;;;;;;26.23;12.93;;;10.90;88.00;;;;;;5067737;28;20040;-79
2022/03/02 12:06:25;;;;;;;24.90;12.73;;;10.90;83.00;;;;;;5067059;28;20059;-79
2022/03/02 12:08:52;;;;;;;20.67;12.70;;;10.90;88.00;;;;;;5051079;28;20036;-80
2022/03/02 12:11:36;;;;;;;22.20;12.80;;;10.90;87.30;;;;;;5050250;28;20032;-80
2022/03/02 12:14:12;;;;;;;20.60;11.75;;;11.00;78.70;;;;;;5067801;28;20503;-80
2022/03/02 12:16:44;;;;;;;19.35;12.52;;;11.10;82.20;;;;;;5051532;28;20044;-78
2022/03/02 12:19:29;;;;;;;19.75;12.23;;;11.10;85.10;;;;;;5066659;28;20108;-79
2022/03/02 12:22:05;;;;;;;22.40;12.48;;;11.20;78.70;;;;;;5050534;28;20048;-79
2022/03/02 12:24:34;;;;;;;19.92;12.23;;;11.20;76.70;;;;;;5066521;28;20053;-80
2022/03/02 12:27:01;;;;;;;19.70;12.40;;;11.30;81.30;;;;;;5066970;28;20049;-76
2022/03/02 12:29:27;;;;;;;25.60;12.52;;;11.80;80.00;;;;;;5068101;28;20332;-76
2022/03/02 12:32:16;;;;;;;22.38;12.07;;;11.30;80.30;;;;;;5049514;28;20128;-76
2022/03/02 12:34:51;;;;;;;22.55;12.75;;;11.30;75.70;;;;;;5050709;28;20048;-76
2022/03/02 12:37:18;;;;;;;26.40;13.07;;;11.40;77.40;;;;;;5066492;28;20059;-80
2022/03/02 12:39:47;;;;;;;20.17;13.07;;;11.40;77.40;;;;;;5034049;28;20077;-79
2022/03/02 12:42:14;;;;;;;26.05;12.98;;;11.40;75.30;;;;;;5067126;28;20128;-77
2022/03/02 12:44:45;;;;;;;20.58;12.93;;;12.30;75.70;;;;;;5066159;28;20052;-77